M I D A S
Marine Information and Data Acquisition System
Tripno 129 of the Zeeleeuw from 2001-05-11 11:20:00 to 2001-05-11 14:45:00
Back to CruiseResearch ActivitiesStationsMapUnderway DataData graphs

EquipmentUnitsComment
TimeDGPSUTC
LatitudeDGPSDM.mWGS84
LongitudeDGPSDM.mWGS84
TemperatureSBE03/SBE38deg celciusITS90
ConductivitySBE21S/mITS90
SalinitySBE21 Practical Salinity Units
ChlorophylAChelsea fluorimeterg/lCalibrated in Aceton
Missing or incorrect values are displayed as -999
Sea surface data collected by the RV Zeeleeuw from 2001-05-11 11:20:00 to 2001-05-11 14:45:00
Time Latitude Longitude Temperature Conductivity Salinity ChlorophylA
2001-05-11 11:21:04 51°12.344 2°48.803 -999 -999 -999  
2001-05-11 11:22:04 51°12.36 2°48.844 -999 -999 -999  
2001-05-11 11:23:04 51°12.373 2°48.889 -999 -999 -999  
2001-05-11 11:24:04 51°12.383 2°48.937 -999 -999 -999  
2001-05-11 11:25:04 51°12.393 2°48.987 -999 -999 -999  
2001-05-11 11:26:04 51°12.404 2°49.027 -999 -999 -999  
2001-05-11 11:27:04 51°12.412 2°49.058 -999 -999 -999  
2001-05-11 11:28:04 51°12.412 2°49.086 -999 -999 -999  
2001-05-11 11:29:04 51°12.404 2°49.111 -999 -999 -999  
2001-05-11 11:30:04 51°12.388 2°49.132 -999 -999 -999  
2001-05-11 11:31:04 51°12.365 2°49.147 -999 -999 -999  
2001-05-11 11:32:04 51°12.32 2°49.17 -999 -999 -999  
2001-05-11 11:33:04 51°12.235 2°49.091 -999 -999 -999  
2001-05-11 11:34:04 51°12.215 2°48.963 -999 -999 -999  
2001-05-11 11:35:04 51°12.227 2°48.865 -999 -999 -999  
2001-05-11 11:36:04 51°12.247 2°48.799 -999 -999 -999  
2001-05-11 11:37:04 51°12.263 2°48.752 -999 -999 -999  
2001-05-11 11:38:04 51°12.272 2°48.708 -999 -999 -999  
2001-05-11 11:39:04 51°12.313 2°48.695 -999 -999 -999  
2001-05-11 11:40:04 51°12.305 2°48.799 -999 -999 -999  
2001-05-11 11:41:04 51°12.203 2°48.789 -999 -999 -999  
2001-05-11 11:42:04 51°12.176 2°48.613 -999 -999 -999  
2001-05-11 11:43:04 51°12.217 2°48.507 -999 -999 -999  
2001-05-11 11:44:04 51°12.242 2°48.442 -999 -999 -999  
2001-05-11 11:45:04 51°12.257 2°48.39 -999 -999 -999  
2001-05-11 11:46:04 51°12.265 2°48.347 -999 -999 -999  
2001-05-11 11:47:04 51°12.268 2°48.305 -999 -999 -999  
2001-05-11 11:48:04 51°12.313 2°48.34 -999 -999 -999  
2001-05-11 11:49:04 51°12.398 2°48.6 -999 -999 -999  
2001-05-11 11:50:04 51°12.491 2°48.876 -999 -999 -999  
2001-05-11 11:51:04 51°12.578 2°49.136 -999 -999 -999  
2001-05-11 11:52:04 51°12.668 2°49.417 -999 -999 -999  
2001-05-11 11:53:04 51°12.755 2°49.698 -999 -999 -999  
2001-05-11 11:54:04 51°12.84 2°49.967 -999 -999 -999  
2001-05-11 11:55:04 51°12.924 2°50.236 -999 -999 -999  
2001-05-11 11:56:05 51°13.012 2°50.509 -999 -999 -999  
2001-05-11 11:57:04 51°13.096 2°50.776 -999 -999 -999  
2001-05-11 11:58:05 51°13.184 2°51.053 -999 -999 -999  
2001-05-11 11:59:05 51°13.27 2°51.327 -999 -999 -999  
2001-05-11 12:00:05 51°13.36 2°51.6 -999 -999 -999  
2001-05-11 12:01:05 51°13.448 2°51.875 -999 -999 -999  
2001-05-11 12:02:05 51°13.535 2°52.16 -999 -999 -999  
2001-05-11 12:03:05 51°13.627 2°52.452 -999 -999 -999  
2001-05-11 12:04:04 51°13.728 2°52.733 -999 -999 -999  
2001-05-11 12:05:04 51°13.842 2°53.014 -999 -999 -999  
2001-05-11 12:06:05 51°13.958 2°53.305 -999 -999 -999  
2001-05-11 12:07:04 51°14.07 2°53.587 -999 -999 -999  
2001-05-11 12:08:04 51°14.184 2°53.877 -999 -999 -999  
2001-05-11 12:09:05 51°14.299 2°54.172 -999 -999 -999  
2001-05-11 12:10:05 51°14.411 2°54.466 -999 -999 -999  
2001-05-11 12:11:05 51°14.485 2°54.786 -999 -999 -999  
2001-05-11 12:12:04 51°14.434 2°55.068 -999 -999 -999  
2001-05-11 12:13:04 51°14.345 2°55.25 -999 -999 -999  
2001-05-11 12:14:05 51°14.265 2°55.385 -999 -999 -999  
2001-05-11 12:15:05 51°14.186 2°55.486 -999 -999 -999  
2001-05-11 12:16:05 51°14.1 2°55.551 -999 -999 -999  
2001-05-11 12:17:05 51°13.999 2°55.631 -999 -999 -999  
2001-05-11 12:18:05 51°13.914 2°55.69 -999 -999 -999  
2001-05-11 12:19:04 51°13.858 2°55.729 -999 -999 -999  
2001-05-11 12:20:04 51°13.819 2°55.773 -999 -999 -999  
2001-05-11 12:21:04 51°13.792 2°55.819 -999 -999 -999  
2001-05-11 12:22:04 51°13.77 2°55.868 -999 -999 -999  
2001-05-11 12:23:04 51°13.751 2°55.92 -999 -999 -999  
2001-05-11 12:24:04 51°13.739 2°55.966 -999 -999 -999  
2001-05-11 12:25:04 51°13.728 2°55.999 -999 -999 -999  
2001-05-11 12:26:04 51°13.724 2°56.006 -999 -999 -999  
2001-05-11 12:27:09 51°13.727 2°56.007 -999 -999 -999  
2001-05-11 12:28:09 51°13.728 2°56.007 -999 -999 -999  
2001-05-11 12:29:09 51°13.727 2°56.007 -999 -999 -999  
2001-05-11 12:30:09 51°13.727 2°56.007 -999 -999 -999  
2001-05-11 12:31:09 51°13.726 2°56.006 -999 -999 -999  
2001-05-11 12:32:38 51°13.726 2°56.006 -999 -999 -999  
2001-05-11 12:33:38 51°13.727 2°56.006 -999 -999 -999  
2001-05-11 12:34:38 51°13.727 2°56.005 -999 -999 -999  
2001-05-11 12:35:38 51°13.728 2°56.006 -999 -999 -999  
2001-05-11 12:36:38 51°13.728 2°56.006 -999 -999 -999  
2001-05-11 12:37:38 51°13.727 2°56.006 -999 -999 -999  
2001-05-11 12:38:38 51°13.727 2°56.006 -999 -999 -999  
2001-05-11 12:39:38 51°13.727 2°56.006 -999 -999 -999  
2001-05-11 12:40:38 51°13.726 2°56.005 -999 -999 -999  
2001-05-11 12:41:38 51°13.725 2°56.003 -999 -999 -999  
2001-05-11 12:42:38 51°13.725 2°56.003 -999 -999 -999  
2001-05-11 12:43:38 51°13.725 2°56.002 -999 -999 -999  
2001-05-11 12:44:38 51°13.728 2°56.005 -999 -999 -999  
2001-05-11 12:45:38 51°13.728 2°56.006 -999 -999 -999  
2001-05-11 12:46:38 51°13.729 2°56.006 -999 -999 -999  
2001-05-11 12:47:38 51°13.729 2°56.006 -999 -999 -999  
2001-05-11 12:48:38 51°13.728 2°56.006 -999 -999 -999  
2001-05-11 12:49:38 51°13.724 2°56.003 -999 -999 -999  
2001-05-11 12:50:38 51°13.725 2°56.004 -999 -999 -999  
2001-05-11 12:51:38 51°13.726 2°56.005 -999 -999 -999  
2001-05-11 12:52:38 51°13.726 2°56.006 -999 -999 -999  
2001-05-11 12:53:38 51°13.727 2°56.006 -999 -999 -999  
2001-05-11 12:54:38 51°13.727 2°56.007 -999 -999 -999  
2001-05-11 12:55:38 51°13.727 2°56.007 -999 -999 -999  
2001-05-11 12:56:38 51°13.726 2°56.006 -999 -999 -999  
2001-05-11 12:57:38 51°13.726 2°56.006 -999 -999 -999  
2001-05-11 12:58:38 51°13.726 2°56.005 -999 -999 -999  
2001-05-11 12:59:38 51°13.726 2°56.005 -999 -999 -999  
2001-05-11 13:00:38 51°13.725 2°56.005 -999 -999 -999  
2001-05-11 13:01:38 51°13.726 2°56.005 -999 -999 -999  
2001-05-11 13:02:38 51°13.725 2°56.007 -999 -999 -999  
2001-05-11 13:03:38 51°13.726 2°56.007 -999 -999 -999  
2001-05-11 13:04:38 51°13.725 2°56.006 -999 -999 -999  
2001-05-11 13:05:38 51°13.726 2°56.006 -999 -999 -999  
2001-05-11 13:06:38 51°13.726 2°56.007 -999 -999 -999  
2001-05-11 13:07:38 51°13.727 2°56.006 -999 -999 -999  
2001-05-11 13:08:38 51°13.727 2°56.005 -999 -999 -999  
2001-05-11 13:09:38 51°13.728 2°56.005 -999 -999 -999  
2001-05-11 13:10:38 51°13.727 2°56.005 -999 -999 -999  
2001-05-11 13:11:38 51°13.727 2°56.005 -999 -999 -999  
2001-05-11 13:12:38 51°13.727 2°56.005 -999 -999 -999  
2001-05-11 13:13:38 51°13.727 2°56.006 -999 -999 -999  
2001-05-11 13:14:38 51°13.727 2°56.006 -999 -999 -999  
2001-05-11 13:15:38 51°13.727 2°56.006 -999 -999 -999